Bookmark and Share
Track history (hours):
 

Nefterudovoz-29m

Last reported at 2013-Jun-01 01:18 UTC. Time now 2014-Apr-19 12:11 UTC.
Position N 44°32' E 033°07'.
Warning: this ship's position is months out of date.

Length 119 m; draft 3.6 m.

Type: Tanker. MMSI: 273345300.

NotesDate/timePositionNaut miles runAvg speedWind from/ knotsBaromVisibWave heightAir tempDewpointWater temp
2013-Jun-01 01:18N 44°32' E 033°07'5 6.6
2013-Jun-01 00:30N 44°36' E 033°02'33 6.7
2013-May-31 19:33N 45°00' E 032°31'7 6.7
2013-May-31 18:33N 45°06' E 032°25'8 6.7
2013-May-31 17:24N 45°12' E 032°18'91 4.8
2013-May-30 22:33N 46°35' E 031°26'7 7.0
2013-May-30 21:34N 46°35' E 031°36'8 7.6
2013-May-30 20:33N 46°36' E 031°47'7 7.2
2013-May-30 19:33N 46°39' E 031°56'7 7.0
2013-May-30 18:33N 46°46' E 031°54'5 4.5
2013-May-30 17:33N 46°50' E 031°57'0 0.0
2013-May-30 16:33N 46°50' E 031°57'0 0.0
2013-May-30 15:33N 46°50' E 031°57'0 0.0
2013-May-30 14:34N 46°50' E 031°57'0 0.0
2013-May-30 13:33N 46°50' E 031°57'0 0.0
2013-May-30 12:33N 46°50' E 031°57'0 0.0
2013-May-30 11:34N 46°50' E 031°57'0 0.0
2013-May-30 10:33N 46°50' E 031°57'0 0.0
2013-May-30 09:33N 46°50' E 031°57'0 0.0
2013-May-30 08:33N 46°50' E 031°57'0 0.0
2013-May-30 07:33N 46°50' E 031°57'0 0.0
2013-May-30 06:33N 46°50' E 031°57'0 0.0
2013-May-30 05:33N 46°50' E 031°57'0 0.0
2013-May-30 04:33N 46°50' E 031°57'0 0.0
2013-May-30 03:33N 46°50' E 031°57'0 0.0
2013-May-30 02:33N 46°50' E 031°57'0 0.0
2013-May-30 01:33N 46°50' E 031°57'0 0.0
2013-May-30 00:33N 46°50' E 031°57'0 0.0
2013-May-29 23:33N 46°50' E 031°57'0 0.0
2013-May-29 22:33N 46°50' E 031°57'0 0.0
2013-May-29 21:34N 46°50' E 031°57'0 0.0
2013-May-29 20:33N 46°50' E 031°57'0 0.0
2013-May-29 19:34N 46°50' E 031°57'0 0.0
2013-May-29 18:33N 46°50' E 031°57'0 0.0
2013-May-29 17:34N 46°50' E 031°57'0 0.0
2013-May-29 16:33N 46°50' E 031°57'0 0.0
2013-May-29 15:33N 46°50' E 031°57'0 0.0
2013-May-29 14:33N 46°50' E 031°57'0 0.0
2013-May-29 13:33N 46°50' E 031°57'0 0.0
2013-May-29 12:33N 46°50' E 031°57'0 0.0
2013-May-29 11:33N 46°50' E 031°57'0 0.0
2013-May-29 10:33N 46°50' E 031°57'0 0.0
2013-May-29 09:33N 46°50' E 031°57'0 0.0
2013-May-29 08:33N 46°50' E 031°57'0 0.0
2013-May-29 07:34N 46°50' E 031°57'0 0.0
2013-May-29 04:33N 46°50' E 031°57'1 1.3
2013-May-29 03:34N 46°50' E 031°55'0 0.0
2013-May-29 02:33N 46°50' E 031°55'0 0.0
2013-May-29 01:33N 46°50' E 031°55'0 0.0
2013-May-29 00:34N 46°50' E 031°55'0 0.0
2013-May-28 23:33N 46°50' E 031°55'0 0.0
2013-May-28 22:33N 46°50' E 031°55'0 0.0
2013-May-28 21:34N 46°50' E 031°55'0 0.0
2013-May-28 20:33N 46°50' E 031°55'0 0.0
2013-May-28 19:33N 46°50' E 031°55'0 0.0
2013-May-28 18:33N 46°50' E 031°55'0 0.0
2013-May-28 17:34N 46°50' E 031°55'3 3.3
2013-May-28 16:33N 46°47' E 031°53'8 7.9
2013-May-28 15:33N 46°40' E 031°56'8 7.9
2013-May-28 14:33N 46°36' E 031°46'111 3.5
2013-May-27 07:13N 44°53' E 032°47'5 7.1
2013-May-27 06:33N 44°50' E 032°51'15 7.3
2013-May-27 04:33N 44°39' E 033°05'  

Dump ship's entire track history

sailing weather and tide predictions

Nefterudovoz-29m — UIMI — position and weather